Time;durP1;ratioP1;P1;durP2;ratioP2;P2;SDS_P1;SDS_P2;PMS_P1;PMS_P2;Temp;Humidity;BMP_temperature;BMP_pressure;BME280_temperature;BME280_humidity;BME280_pressure;Samples;Min_cycle;Max_cycle;Signal;HPM_P1;HPM_P2
2023/04/17 00:02:15;;;;;;;;;;;13.20;99.90;;;;;;5093842;28;20471;-62
2023/04/17 00:04:41;;;;;;;;;;;13.20;99.90;;;;;;5093687;28;20025;-63
2023/04/17 00:07:06;;;;;;;;;;;13.30;99.90;;;;;;5093730;28;20027;-63
2023/04/17 00:09:32;;;;;;;;;;;13.20;99.90;;;;;;5093567;28;20450;-63
2023/04/17 00:11:58;;;;;;;;;;;13.20;99.90;;;;;;5093743;28;19985;-62
2023/04/17 00:14:23;;;;;;;;;;;13.30;99.90;;;;;;5093462;28;19988;-62
2023/04/17 00:16:49;;;;;;;;;;;13.10;99.90;;;;;;5093588;28;20079;-63
2023/04/17 00:19:14;;;;;;;;;;;13.00;99.90;;;;;;5093719;28;19984;-64
2023/04/17 00:21:40;;;;;;;;;;;13.00;99.90;;;;;;5093499;28;20070;-64
2023/04/17 00:24:06;;;;;;;;;;;13.00;99.90;;;;;;5093529;28;19985;-61
2023/04/17 00:26:33;;;;;;;;;;;13.00;99.90;;;;;;5093448;28;20506;-62
2023/04/17 00:28:59;;;;;;;;;;;13.10;99.90;;;;;;5093325;28;20043;-62
2023/04/17 00:31:25;;;;;;;;;;;13.10;99.90;;;;;;5093497;28;20055;-62
2023/04/17 00:33:50;;;;;;;;;;;13.00;99.90;;;;;;5093696;28;20431;-63
2023/04/17 00:36:16;;;;;;;;;;;12.80;99.90;;;;;;5093794;28;20351;-63
2023/04/17 00:38:41;;;;;;;;;;;12.80;99.90;;;;;;5093283;28;20020;-63
2023/04/17 00:41:07;;;;;;;;;;;12.90;99.90;;;;;;5093574;28;20008;-62
2023/04/17 00:43:33;;;;;;;;;;;13.00;99.90;;;;;;5096966;28;20016;-64
2023/04/17 00:45:59;;;;;;;;;;;13.00;99.90;;;;;;5097308;28;19999;-64
2023/04/17 00:48:24;;;;;;;;;;;13.00;99.90;;;;;;5097067;28;19992;-63
2023/04/17 00:50:51;;;;;;;;;;;13.10;99.90;;;;;;5097054;28;19992;-63
2023/04/17 00:53:17;;;;;;;;;;;13.20;99.90;;;;;;5097093;28;19985;-62
2023/04/17 00:55:43;;;;;;;;;;;13.10;99.90;;;;;;5097002;28;20050;-63
2023/04/17 00:58:09;;;;;;;;;;;13.10;99.90;;;;;;5097011;28;20080;-64
2023/04/17 01:00:35;;;;;;;;;;;13.10;99.90;;;;;;5097362;28;20049;-62
2023/04/17 01:03:01;;;;;;;;;;;13.10;99.90;;;;;;5096793;28;20048;-63
2023/04/17 01:05:27;;;;;;;;;;;13.10;99.90;;;;;;5096835;28;19985;-64
2023/04/17 01:07:53;;;;;;;;;;;12.90;99.90;;;;;;5096731;28;19992;-64
2023/04/17 01:10:19;;;;;;;;;;;12.80;99.90;;;;;;5096591;28;20503;-64
2023/04/17 01:12:47;;;;;;;;;;;12.90;99.90;;;;;;5096497;28;20034;-64
2023/04/17 01:15:13;;;;;;;;;;;12.90;99.90;;;;;;5096756;28;19985;-63
2023/04/17 01:17:39;;;;;;;;;;;13.00;99.90;;;;;;5096576;28;20373;-64
2023/04/17 01:20:06;;;;;;;;;;;13.00;99.90;;;;;;5096447;28;19988;-63
2023/04/17 01:22:32;;;;;;;;;;;13.10;99.90;;;;;;5096553;28;20030;-62
2023/04/17 01:24:57;;;;;;;;;;;13.10;99.90;;;;;;5096559;28;20078;-64
2023/04/17 01:27:23;;;;;;;;;;;13.10;99.90;;;;;;5096336;28;20448;-62
2023/04/17 01:29:49;;;;;;;;;;;13.10;99.90;;;;;;5096313;28;19999;-64
2023/04/17 01:32:15;;;;;;;;;;;13.20;99.90;;;;;;5096573;28;19989;-62
2023/04/17 01:34:41;;;;;;;;;;;13.10;99.90;;;;;;5096165;28;20081;-62
2023/04/17 01:37:06;;;;;;;;;;;13.20;99.90;;;;;;5096092;28;20012;-63
2023/04/17 01:39:32;;;;;;;;;;;13.20;99.90;;;;;;5095991;28;19992;-63
2023/04/17 01:41:57;;;;;;;;;;;13.20;99.90;;;;;;5095958;28;20058;-62
2023/04/17 01:44:23;;;;;;;;;;;13.20;99.90;;;;;;5096067;28;19985;-62
2023/04/17 01:46:48;;;;;;;;;;;13.00;99.90;;;;;;5096115;28;19995;-64
2023/04/17 01:49:14;;;;;;;;;;;13.10;99.90;;;;;;5096267;28;20029;-65
2023/04/17 01:51:40;;;;;;;;;;;13.10;99.90;;;;;;5095822;28;20030;-62
2023/04/17 01:54:05;;;;;;;;;;;13.20;99.90;;;;;;5095000;28;19988;-64
2023/04/17 01:56:31;;;;;;;;;;;13.20;99.90;;;;;;5096258;28;20035;-62
2023/04/17 01:58:56;;;;;;;;;;;13.30;99.90;;;;;;5095972;28;20316;-64
2023/04/17 02:01:22;;;;;;;;;;;13.30;99.90;;;;;;5095689;28;19989;-63
2023/04/17 02:03:47;;;;;;;;;;;13.30;99.90;;;;;;5095782;28;20024;-62
2023/04/17 02:06:13;;;;;;;;;;;13.30;99.90;;;;;;5095606;28;20092;-62
2023/04/17 02:08:39;;;;;;;;;;;13.30;99.90;;;;;;5095479;28;19996;-62
2023/04/17 02:11:04;;;;;;;;;;;13.30;99.90;;;;;;5095911;28;20431;-63
2023/04/17 02:13:30;;;;;;;;;;;13.30;99.90;;;;;;5095776;28;20324;-62
2023/04/17 02:15:56;;;;;;;;;;;13.30;99.90;;;;;;5095443;28;20083;-63
2023/04/17 02:18:22;;;;;;;;;;;13.30;99.90;;;;;;5095514;28;19985;-64
2023/04/17 02:20:47;;;;;;;;;;;13.30;99.90;;;;;;5094181;28;19989;-63
2023/04/17 02:23:13;;;;;;;;;;;13.30;99.90;;;;;;5095008;28;20061;-63
2023/04/17 02:25:38;;;;;;;;;;;13.30;99.90;;;;;;5095439;28;20031;-61
2023/04/17 02:28:05;;;;;;;;;;;13.30;99.90;;;;;;5095313;28;20010;-62
2023/04/17 02:30:30;;;;;;;;;;;13.20;99.90;;;;;;5095164;28;20350;-64
2023/04/17 02:32:56;;;;;;;;;;;13.20;99.90;;;;;;5095096;28;19989;-64
2023/04/17 02:35:26;;;;;;;;;;;13.10;99.90;;;;;;5095440;28;19995;-62
2023/04/17 02:37:52;;;;;;;;;;;13.10;99.90;;;;;;5094775;28;20029;-63
2023/04/17 02:40:18;;;;;;;;;;;13.20;99.90;;;;;;5095252;28;19993;-63
2023/04/17 02:42:44;;;;;;;;;;;13.20;99.90;;;;;;5095100;28;20020;-63
2023/04/17 02:45:10;;;;;;;;;;;13.20;99.90;;;;;;5094882;28;19985;-65
2023/04/17 02:47:36;;;;;;;;;;;13.10;99.90;;;;;;5094917;28;19989;-64
2023/04/17 02:50:02;;;;;;;;;;;12.90;99.90;;;;;;5094911;28;20355;-64
2023/04/17 02:52:28;;;;;;;;;;;12.80;99.90;;;;;;5094557;28;19985;-64
2023/04/17 02:54:55;;;;;;;;;;;12.80;99.90;;;;;;5094622;28;19989;-63
2023/04/17 02:57:21;;;;;;;;;;;12.80;99.90;;;;;;5094713;28;20416;-64
2023/04/17 02:59:47;;;;;;;;;;;12.90;99.90;;;;;;5094933;28;19993;-64
2023/04/17 03:02:13;;;;;;;;;;;13.00;99.90;;;;;;5094401;28;20009;-64
2023/04/17 03:04:38;;;;;;;;;;;13.10;99.90;;;;;;5094048;28;19985;-64
2023/04/17 03:07:05;;;;;;;;;;;13.10;99.90;;;;;;5094126;28;19989;-62
2023/04/17 03:09:32;;;;;;;;;;;13.20;99.90;;;;;;5094421;28;20355;-64
2023/04/17 03:11:57;;;;;;;;;;;13.20;99.90;;;;;;5094540;28;19985;-63
2023/04/17 03:14:23;;;;;;;;;;;13.30;99.90;;;;;;5094635;28;19996;-62
2023/04/17 03:16:48;;;;;;;;;;;13.30;99.90;;;;;;5094313;28;20034;-63
2023/04/17 03:19:14;;;;;;;;;;;13.30;99.90;;;;;;5094252;28;20328;-63
2023/04/17 03:21:40;;;;;;;;;;;13.40;99.90;;;;;;5094062;28;20337;-64
2023/04/17 03:24:05;;;;;;;;;;;13.40;99.90;;;;;;5094117;28;19985;-64
2023/04/17 03:26:31;;;;;;;;;;;13.20;99.90;;;;;;5094358;28;20012;-62
2023/04/17 03:28:56;;;;;;;;;;;13.20;99.90;;;;;;5094228;28;19988;-64
2023/04/17 03:31:24;;;;;;;;;;;13.20;99.90;;;;;;5094102;28;19985;-63
2023/04/17 03:33:50;;;;;;;;;;;13.20;99.90;;;;;;5094250;28;19997;-62
2023/04/17 03:36:16;;;;;;;;;;;13.20;99.90;;;;;;5094148;28;20012;-65
2023/04/17 03:38:42;;;;;;;;;;;13.00;99.90;;;;;;5093850;28;20021;-64
2023/04/17 03:41:08;;;;;;;;;;;13.00;99.90;;;;;;5093847;28;20477;-63
2023/04/17 03:43:34;;;;;;;;;;;12.80;99.90;;;;;;5093987;28;20016;-64
2023/04/17 03:46:00;;;;;;;;;;;12.80;99.90;;;;;;5094208;28;19993;-64
2023/04/17 03:48:26;;;;;;;;;;;12.90;99.90;;;;;;5093860;28;20536;-65
2023/04/17 03:50:52;;;;;;;;;;;12.90;99.90;;;;;;5093852;28;19989;-64
2023/04/17 03:53:17;;;;;;;;;;;13.00;99.90;;;;;;5093880;28;19989;-64
2023/04/17 03:55:43;;;;;;;;;;;13.10;99.90;;;;;;5093793;28;19985;-62
2023/04/17 03:58:08;;;;;;;;;;;13.00;99.90;;;;;;5093999;28;19989;-63
2023/04/17 04:00:36;;;;;;;;;;;13.10;99.90;;;;;;5094084;28;19989;-63
2023/04/17 04:03:02;;;;;;;;;;;13.00;99.90;;;;;;5093913;28;20065;-64
2023/04/17 04:05:28;;;;;;;;;;;13.10;99.90;;;;;;5093837;28;19993;-63
2023/04/17 04:07:54;;;;;;;;;;;13.10;99.90;;;;;;5093728;28;20007;-65
2023/04/17 04:10:20;;;;;;;;;;;13.10;99.90;;;;;;5093660;28;20000;-64
2023/04/17 04:12:45;;;;;;;;;;;13.10;99.90;;;;;;5093619;28;19985;-64
2023/04/17 04:15:11;;;;;;;;;;;13.10;99.90;;;;;;5093597;28;19985;-62
2023/04/17 04:17:37;;;;;;;;;;;13.00;99.90;;;;;;5096522;28;20015;-62
2023/04/17 04:20:03;;;;;;;;;;;13.00;99.90;;;;;;5097353;28;19985;-62
2023/04/17 04:22:29;;;;;;;;;;;13.00;99.90;;;;;;5097593;28;20028;-62
2023/04/17 04:24:55;;;;;;;;;;;13.10;99.90;;;;;;5097558;28;19985;-62
2023/04/17 04:27:21;;;;;;;;;;;13.10;99.90;;;;;;5097741;28;19989;-64
2023/04/17 04:29:47;;;;;;;;;;;13.00;99.90;;;;;;5097710;28;20407;-64
2023/04/17 04:32:14;;;;;;;;;;;13.10;99.90;;;;;;5097458;28;20363;-63
2023/04/17 04:34:40;;;;;;;;;;;13.10;99.90;;;;;;5097475;28;20057;-64
2023/04/17 04:37:06;;;;;;;;;;;13.10;99.90;;;;;;5097240;28;20462;-63
2023/04/17 04:39:32;;;;;;;;;;;13.10;99.90;;;;;;5097647;28;19993;-65
2023/04/17 04:42:05;;;;;;;;;;;13.10;99.90;;;;;;5097086;28;20378;-62
2023/04/17 04:44:30;;;;;;;;;;;13.10;99.90;;;;;;5097235;28;20439;-64
2023/04/17 04:46:56;;;;;;;;;;;13.00;99.90;;;;;;5097378;28;19996;-62
2023/04/17 04:49:22;;;;;;;;;;;12.90;99.90;;;;;;5096852;28;19993;-64
2023/04/17 04:51:47;;;;;;;;;;;13.00;99.90;;;;;;5097032;28;20088;-63
2023/04/17 04:54:13;;;;;;;;;;;13.10;99.90;;;;;;5097336;28;20071;-62
2023/04/17 04:56:39;;;;;;;;;;;13.00;99.90;;;;;;5097062;28;19996;-63
2023/04/17 04:59:04;;;;;;;;;;;13.00;99.90;;;;;;5096326;28;19985;-62
2023/04/17 05:01:30;;;;;;;;;;;13.10;99.90;;;;;;5096625;28;20329;-64
2023/04/17 05:03:55;;;;;;;;;;;13.00;99.90;;;;;;5096160;28;20047;-62
2023/04/17 05:06:21;;;;;;;;;;;13.10;99.90;;;;;;5095101;28;19992;-65
2023/04/17 05:08:47;;;;;;;;;;;13.10;99.90;;;;;;5094265;28;20409;-64
2023/04/17 05:11:13;;;;;;;;;;;13.10;99.90;;;;;;5096497;28;19985;-62
2023/04/17 05:13:38;;;;;;;;;;;13.10;99.90;;;;;;5096479;28;19985;-63
2023/04/17 05:16:04;;;;;;;;;;;13.10;99.90;;;;;;5096487;28;20336;-65
2023/04/17 05:18:30;;;;;;;;;;;13.10;99.90;;;;;;5096448;28;19993;-62
2023/04/17 05:20:55;;;;;;;;;;;13.10;99.90;;;;;;5095028;28;20451;-63
2023/04/17 05:23:21;;;;;;;;;;;13.10;99.90;;;;;;5096614;28;20421;-62
2023/04/17 05:25:47;;;;;;;;;;;13.10;99.90;;;;;;5096577;28;20438;-63
2023/04/17 05:28:13;;;;;;;;;;;13.10;99.90;;;;;;5095220;28;19989;-64
2023/04/17 05:30:38;;;;;;;;;;;13.10;99.90;;;;;;5095507;28;20408;-64
2023/04/17 05:33:04;;;;;;;;;;;13.10;99.90;;;;;;5096143;28;20080;-63
2023/04/17 05:35:29;;;;;;;;;;;13.10;99.90;;;;;;5096027;28;20008;-63
2023/04/17 05:37:55;;;;;;;;;;;13.20;99.90;;;;;;5095698;28;20022;-63
2023/04/17 05:40:21;;;;;;;;;;;13.20;99.90;;;;;;5095959;28;19985;-65
2023/04/17 05:42:47;;;;;;;;;;;13.10;99.90;;;;;;5094981;28;20545;-65
2023/04/17 05:45:13;;;;;;;;;;;13.10;99.90;;;;;;5095527;28;20039;-65
2023/04/17 05:47:39;;;;;;;;;;;13.00;99.90;;;;;;5094577;28;20061;-62
2023/04/17 05:50:05;;;;;;;;;;;12.90;99.90;;;;;;5094469;28;20442;-65
2023/04/17 05:52:31;;;;;;;;;;;12.70;99.90;;;;;;5094281;28;19992;-65
2023/04/17 05:54:56;;;;;;;;;;;12.70;99.90;;;;;;5095005;28;19985;-62
2023/04/17 05:57:22;;;;;;;;;;;12.70;99.90;;;;;;5094805;28;20030;-62
2023/04/17 06:02:51;;;;;;;;;;;12.90;99.90;;;;;;5093933;28;20069;-63
2023/04/17 06:05:16;;;;;;;;;;;12.90;99.90;;;;;;5093940;28;20439;-65
2023/04/17 06:07:42;;;;;;;;;;;12.90;99.90;;;;;;5083705;28;20000;-64
2023/04/17 06:10:09;;;;;;;;;;;12.90;99.90;;;;;;5088101;28;20021;-65
2023/04/17 06:12:35;;;;;;;;;;;13.00;99.90;;;;;;5092961;28;19985;-63
2023/04/17 06:15:00;;;;;;;;;;;12.90;99.90;;;;;;5085713;28;20412;-62
2023/04/17 06:17:26;;;;;;;;;;;12.90;99.90;;;;;;5083841;28;20004;-65
2023/04/17 06:19:51;;;;;;;;;;;12.80;99.90;;;;;;5082028;28;20028;-65
2023/04/17 06:22:17;;;;;;;;;;;12.80;99.90;;;;;;5092732;28;20009;-66
2023/04/17 06:24:43;;;;;;;;;;;12.90;99.90;;;;;;5092727;28;19997;-63
2023/04/17 06:27:08;;;;;;;;;;;13.00;99.90;;;;;;5094864;28;20339;-63
2023/04/17 06:29:34;;;;;;;;;;;13.10;99.90;;;;;;5092265;28;19993;-65
2023/04/17 06:31:59;;;;;;;;;;;13.20;99.90;;;;;;5086154;28;19995;-65
2023/04/17 06:34:25;;;;;;;;;;;13.30;99.90;;;;;;5090946;28;19999;-66
2023/04/17 06:36:50;;;;;;;;;;;13.30;99.90;;;;;;5082937;28;19997;-64
2023/04/17 06:39:16;;;;;;;;;;;13.40;99.90;;;;;;5084915;28;20017;-62
2023/04/17 06:41:42;;;;;;;;;;;13.50;99.90;;;;;;5082782;28;20038;-64
2023/04/17 06:44:07;;;;;;;;;;;13.60;99.90;;;;;;5087423;28;20064;-65
2023/04/17 06:46:35;;;;;;;;;;;13.70;99.90;;;;;;5094690;28;20250;-62
2023/04/17 06:49:01;;;;;;;;;;;13.80;99.90;;;;;;5088213;28;20466;-67
2023/04/17 06:51:28;;;;;;;;;;;13.70;99.90;;;;;;5091869;28;19996;-65
2023/04/17 06:53:53;;;;;;;;;;;13.70;99.90;;;;;;5082216;28;20038;-63
2023/04/17 06:56:19;;;;;;;;;;;13.70;99.90;;;;;;5083825;28;20036;-63
2023/04/17 06:58:45;;;;;;;;;;;13.70;99.90;;;;;;5087011;28;20011;-65
2023/04/17 07:01:12;;;;;;;;;;;13.80;99.90;;;;;;5090663;28;20462;-64
2023/04/17 07:03:38;;;;;;;;;;;13.80;99.90;;;;;;5078811;28;20009;-66
2023/04/17 07:06:04;;;;;;;;;;;13.70;99.90;;;;;;5077422;28;19996;-63
2023/04/17 07:08:36;;;;;;;;;;;13.70;99.90;;;;;;5088374;28;20370;-67
2023/04/17 07:11:03;;;;;;;;;;;13.60;99.90;;;;;;5073875;28;20463;-69
2023/04/17 07:13:33;;;;;;;;;;;13.60;99.90;;;;;;5089897;28;20087;-66
2023/04/17 07:16:00;;;;;;;;;;;13.60;99.90;;;;;;5074667;28;19989;-65
2023/04/17 07:18:28;;;;;;;;;;;13.60;99.90;;;;;;5082511;28;19996;-63
2023/04/17 07:20:55;;;;;;;;;;;13.60;99.90;;;;;;5073852;28;20000;-66
2023/04/17 07:23:26;;;;;;;;;;;13.50;99.90;;;;;;5076479;28;20471;-66
2023/04/17 07:25:52;;;;;;;;;;;13.50;99.90;;;;;;5079576;28;19989;-65
2023/04/17 07:28:18;;;;;;;;;;;13.50;99.90;;;;;;5083698;28;20356;-64
2023/04/17 07:30:46;;;;;;;;;;;13.60;99.90;;;;;;5079112;28;19996;-66
2023/04/17 07:33:18;;;;;;;;;;;13.60;99.90;;;;;;5078431;28;19989;-62
2023/04/17 07:35:48;;;;;;;;;;;13.70;99.90;;;;;;5089046;28;20109;-63
2023/04/17 07:38:15;;;;;;;;;;;13.70;99.90;;;;;;5090131;28;20040;-64
2023/04/17 07:40:47;;;;;;;;;;;13.80;99.90;;;;;;5090069;28;20355;-60
2023/04/17 07:43:15;;;;;;;;;;;13.80;99.90;;;;;;5081894;28;20008;-63
2023/04/17 07:45:45;;;;;;;;;;;13.80;99.90;;;;;;5078369;28;20000;-61
2023/04/17 07:48:11;;;;;;;;;;;13.80;99.90;;;;;;5082942;28;19990;-61
2023/04/17 07:50:37;;;;;;;;;;;13.70;99.90;;;;;;5078709;28;20356;-61
2023/04/17 07:53:02;;;;;;;;;;;13.60;99.90;;;;;;5083186;28;19988;-61
2023/04/17 07:55:28;;;;;;;;;;;13.60;99.90;;;;;;5080483;28;20008;-62
2023/04/17 07:57:54;;;;;;;;;;;13.70;99.90;;;;;;5082470;28;19989;-61
2023/04/17 08:00:20;;;;;;;;;;;13.70;99.90;;;;;;5077371;28;20080;-60
2023/04/17 08:02:46;;;;;;;;;;;13.70;99.90;;;;;;5081917;28;20454;-60
2023/04/17 08:05:11;;;;;;;;;;;13.70;99.90;;;;;;5085451;28;20295;-61
2023/04/17 08:07:37;;;;;;;;;;;13.80;99.90;;;;;;5080019;28;20309;-60
2023/04/17 08:10:03;;;;;;;;;;;13.80;99.90;;;;;;5079726;28;19989;-63
2023/04/17 08:12:29;;;;;;;;;;;13.80;99.90;;;;;;5080425;28;20012;-62
2023/04/17 08:14:54;;;;;;;;;;;13.80;99.90;;;;;;5086370;28;19989;-61
2023/04/17 08:17:22;;;;;;;;;;;13.80;99.90;;;;;;5087564;28;19999;-62
2023/04/17 08:22:50;;;;;;;;;;;13.70;99.90;;;;;;5086432;28;20427;-63
2023/04/17 08:25:16;;;;;;;;;;;13.60;99.90;;;;;;5084401;28;20080;-61
2023/04/17 08:27:42;;;;;;;;;;;13.60;99.90;;;;;;5085109;28;19989;-62
2023/04/17 08:30:08;;;;;;;;;;;13.60;99.90;;;;;;5089897;28;19989;-62
2023/04/17 08:32:38;;;;;;;;;;;13.70;99.90;;;;;;5087210;28;19993;-62
2023/04/17 08:35:04;;;;;;;;;;;13.70;99.90;;;;;;5079491;28;20407;-61
2023/04/17 08:37:30;;;;;;;;;;;13.90;99.90;;;;;;5084661;28;20025;-60
2023/04/17 08:39:56;;;;;;;;;;;13.90;99.90;;;;;;5083758;28;19997;-63
2023/04/17 08:42:22;;;;;;;;;;;14.00;99.90;;;;;;5091881;28;20013;-62
2023/04/17 08:44:48;;;;;;;;;;;14.00;99.90;;;;;;5090007;28;19990;-61
2023/04/17 08:47:16;;;;;;;;;;;14.10;99.90;;;;;;5088872;28;20348;-62
2023/04/17 08:49:42;;;;;;;;;;;14.10;99.90;;;;;;5076124;28;19994;-62
2023/04/17 08:52:08;;;;;;;;;;;14.20;99.90;;;;;;5087536;28;20049;-64
2023/04/17 08:54:35;;;;;;;;;;;14.30;99.90;;;;;;5085866;28;20000;-63
2023/04/17 08:57:04;;;;;;;;;;;14.30;99.90;;;;;;5074093;28;19990;-65
2023/04/17 08:59:30;;;;;;;;;;;14.40;99.90;;;;;;5083790;28;19997;-67
2023/04/17 09:02:06;;;;;;;;;;;14.50;99.90;;;;;;5083910;28;20494;-65
2023/04/17 09:04:35;;;;;;;;;;;14.50;99.90;;;;;;5086302;28;20685;-65
2023/04/17 09:07:02;;;;;;;;;;;14.60;99.90;;;;;;5088935;28;19993;-64
2023/04/17 09:09:46;;;;;;;;;;;14.70;99.90;;;;;;5091093;28;20088;-64
2023/04/17 09:12:12;;;;;;;;;;;14.80;99.90;;;;;;5086550;28;20340;-63
2023/04/17 09:14:38;;;;;;;;;;;14.90;99.90;;;;;;5092511;28;19992;-64
2023/04/17 09:17:03;;;;;;;;;;;14.90;99.90;;;;;;5093407;28;20035;-62
2023/04/17 09:19:30;;;;;;;;;;;14.80;99.90;;;;;;5093690;28;20004;-63
2023/04/17 09:21:55;;;;;;;;;;;14.80;99.90;;;;;;5093707;28;19989;-63
2023/04/17 09:24:34;;;;;;;;;;;14.80;99.90;;;;;;5094360;28;20092;-61
2023/04/17 09:27:21;;;;;;;;;;;14.80;99.90;;;;;;5095069;28;20014;-64
2023/04/17 09:29:57;;;;;;;;;;;14.90;99.90;;;;;;5094824;28;20004;-65
2023/04/17 09:32:24;;;;;;;;;;;14.90;99.90;;;;;;5096435;28;19993;-64
2023/04/17 09:34:50;;;;;;;;;;;14.80;99.90;;;;;;5095975;28;20482;-63
2023/04/17 09:37:16;;;;;;;;;;;14.90;99.90;;;;;;5095152;28;20035;-63
2023/04/17 09:39:56;;;;;;;;;;;15.00;99.90;;;;;;5088132;28;19993;-66
2023/04/17 09:42:22;;;;;;;;;;;14.90;99.90;;;;;;5091026;28;20009;-63
2023/04/17 09:44:54;;;;;;;;;;;14.70;99.90;;;;;;5093253;28;20463;-63
2023/04/17 09:47:21;;;;;;;;;;;14.60;99.90;;;;;;5092098;28;20473;-61
2023/04/17 09:49:54;;;;;;;;;;;14.70;99.90;;;;;;5083933;28;20088;-62
2023/04/17 09:52:23;;;;;;;;;;;14.60;99.90;;;;;;5095267;28;20447;-64
2023/04/17 09:54:50;;;;;;;;;;;14.80;99.90;;;;;;5089932;28;20393;-62
2023/04/17 09:57:16;;;;;;;;;;;14.90;99.90;;;;;;5094707;28;20033;-63
2023/04/17 09:59:48;;;;;;;;;;;15.00;99.90;;;;;;5095534;28;19989;-61
2023/04/17 10:02:18;;;;;;;;;;;14.90;99.90;;;;;;5095113;28;20016;-61
2023/04/17 10:04:45;;;;;;;;;;;14.90;99.90;;;;;;5084727;28;19993;-62
2023/04/17 10:07:11;;;;;;;;;;;14.90;99.90;;;;;;5093747;28;20087;-63
2023/04/17 10:09:40;;;;;;;;;;;14.80;99.90;;;;;;5089951;28;20044;-61
2023/04/17 10:12:10;;;;;;;;;;;14.80;99.90;;;;;;5088426;28;19989;-63
2023/04/17 10:14:39;;;;;;;;;;;14.90;99.90;;;;;;5093359;28;20000;-63
2023/04/17 10:17:23;;;;;;;;;;;14.90;99.90;;;;;;5099380;28;19989;-63
2023/04/17 10:19:49;;;;;;;;;;;14.90;99.90;;;;;;5087494;28;20607;-63
2023/04/17 10:22:14;;;;;;;;;;;14.90;99.90;;;;;;5092217;28;20009;-62
2023/04/17 10:24:44;;;;;;;;;;;14.70;99.90;;;;;;5094595;28;19989;-62
2023/04/17 10:27:25;;;;;;;;;;;14.60;99.90;;;;;;5094053;28;19993;-62
2023/04/17 10:29:54;;;;;;;;;;;14.60;99.90;;;;;;5089630;28;20471;-62
2023/04/17 10:32:20;;;;;;;;;;;14.70;99.90;;;;;;5093793;28;19997;-62
2023/04/17 10:34:46;;;;;;;;;;;14.80;99.90;;;;;;5088877;28;19993;-61
2023/04/17 10:37:14;;;;;;;;;;;14.90;99.90;;;;;;5088963;28;20482;-61
2023/04/17 10:39:50;;;;;;;;;;;15.00;99.90;;;;;;5093750;28;19997;-61
2023/04/17 10:42:22;;;;;;;;;;;15.00;99.90;;;;;;5093013;28;20403;-62
2023/04/17 10:44:48;;;;;;;;;;;15.00;99.90;;;;;;5089373;28;20465;-64
2023/04/17 10:47:14;;;;;;;;;;;15.10;99.90;;;;;;5091000;28;19989;-60
2023/04/17 10:49:57;;;;;;;;;;;15.10;99.90;;;;;;5087921;28;19992;-63
2023/04/17 10:52:32;;;;;;;;;;;15.10;99.90;;;;;;5089159;28;20440;-63
2023/04/17 10:55:05;;;;;;;;;;;15.10;99.90;;;;;;5089273;28;20442;-62
2023/04/17 10:57:49;;;;;;;;;;;15.00;99.90;;;;;;5092864;28;19989;-62
2023/04/17 11:00:15;;;;;;;;;;;15.00;99.90;;;;;;5092162;28;19992;-62
2023/04/17 11:02:44;;;;;;;;;;;15.00;99.90;;;;;;5090594;28;20013;-62
2023/04/17 11:05:10;;;;;;;;;;;15.10;99.90;;;;;;5087164;28;20000;-62
2023/04/17 11:07:36;;;;;;;;;;;15.10;99.90;;;;;;5093674;28;19993;-62
2023/04/17 11:10:05;;;;;;;;;;;15.20;99.90;;;;;;5093562;28;20012;-64
2023/04/17 11:12:31;;;;;;;;;;;15.20;99.90;;;;;;5088504;28;20344;-62
2023/04/17 11:15:01;;;;;;;;;;;15.20;99.90;;;;;;5090037;28;19995;-64
2023/04/17 11:17:26;;;;;;;;;;;15.20;99.90;;;;;;5093483;28;19997;-63
2023/04/17 11:19:52;;;;;;;;;;;15.00;99.90;;;;;;5078345;28;20004;-60
2023/04/17 11:22:18;;;;;;;;;;;14.90;99.90;;;;;;5085318;28;20019;-63
2023/04/17 11:24:43;;;;;;;;;;;14.80;99.90;;;;;;5080961;28;20382;-64
2023/04/17 11:27:09;;;;;;;;;;;14.70;99.90;;;;;;5086901;28;19997;-61
2023/04/17 11:29:35;;;;;;;;;;;14.60;99.90;;;;;;5082323;28;20478;-63
2023/04/17 11:32:00;;;;;;;;;;;14.60;99.90;;;;;;5085383;28;20447;-62
2023/04/17 11:34:26;;;;;;;;;;;14.60;99.90;;;;;;5087693;28;20467;-63
2023/04/17 11:36:59;;;;;;;;;;;14.50;99.90;;;;;;5085396;28;20405;-64
2023/04/17 11:39:25;;;;;;;;;;;14.50;99.90;;;;;;5082167;28;20538;-62
2023/04/17 11:41:51;;;;;;;;;;;14.70;99.90;;;;;;5076087;28;19997;-62
2023/04/17 11:44:19;;;;;;;;;;;14.80;99.90;;;;;;5087032;28;20025;-63
2023/04/17 11:46:51;;;;;;;;;;;14.80;99.90;;;;;;5080227;28;19995;-62
2023/04/17 11:49:46;;;;;;;;;;;14.80;99.90;;;;;;5080225;28;20403;-62
2023/04/17 11:52:12;;;;;;;;;;;14.90;99.90;;;;;;5077738;28;20422;-63
2023/04/17 11:54:37;;;;;;;;;;;14.90;99.90;;;;;;5081032;28;20088;-62
2023/04/17 11:57:04;;;;;;;;;;;15.00;99.90;;;;;;5089233;28;19988;-62
2023/04/17 11:59:30;;;;;;;;;;;15.10;99.90;;;;;;5088054;28;19993;-61
2023/04/17 12:01:55;;;;;;;;;;;15.10;99.90;;;;;;5090476;28;19996;-62
2023/04/17 12:04:21;;;;;;;;;;;15.20;99.90;;;;;;5089217;28;20004;-62
2023/04/17 12:06:47;;;;;;;;;;;15.30;99.90;;;;;;5090418;28;19996;-63
2023/04/17 12:09:23;;;;;;;;;;;15.40;99.90;;;;;;5087320;28;19997;-62
2023/04/17 12:11:49;;;;;;;;;;;15.40;99.90;;;;;;5089003;28;20526;-61
2023/04/17 12:14:15;;;;;;;;;;;15.50;99.90;;;;;;5087954;28;19996;-62
2023/04/17 12:16:41;;;;;;;;;;;15.50;99.90;;;;;;5088360;28;20363;-62
2023/04/17 12:19:07;;;;;;;;;;;15.50;99.90;;;;;;5088633;28;20350;-62
2023/04/17 12:21:32;;;;;;;;;;;15.30;99.90;;;;;;5089955;28;20049;-61
2023/04/17 12:23:58;;;;;;;;;;;15.40;99.90;;;;;;5091509;28;20023;-61
2023/04/17 12:26:27;;;;;;;;;;;15.30;99.90;;;;;;5092210;28;20104;-62
2023/04/17 12:28:55;;;;;;;;;;;15.20;99.90;;;;;;5092913;28;19995;-62
2023/04/17 12:31:20;;;;;;;;;;;15.20;99.90;;;;;;5093180;28;20008;-62
2023/04/17 12:33:46;;;;;;;;;;;15.30;99.90;;;;;;5093464;28;20037;-62
2023/04/17 12:36:12;;;;;;;;;;;15.30;99.90;;;;;;5093236;28;19989;-62
2023/04/17 12:38:37;;;;;;;;;;;15.40;99.90;;;;;;5095904;28;20016;-61
2023/04/17 12:41:03;;;;;;;;;;;15.40;99.90;;;;;;5097306;28;19989;-62
2023/04/17 12:43:30;;;;;;;;;;;15.50;99.90;;;;;;5096681;28;20035;-62
2023/04/17 12:45:57;;;;;;;;;;;15.40;99.90;;;;;;5097264;28;20439;-62
2023/04/17 12:48:22;;;;;;;;;;;15.30;99.90;;;;;;5095983;28;20001;-61
2023/04/17 12:50:48;;;;;;;;;;;15.30;99.90;;;;;;5095335;28;19993;-62
2023/04/17 12:53:14;;;;;;;;;;;15.30;99.90;;;;;;5095894;28;20040;-62
2023/04/17 12:55:40;;;;;;;;;;;15.20;99.90;;;;;;5095813;28;20046;-61
2023/04/17 12:58:10;;;;;;;;;;;15.10;99.90;;;;;;5096377;28;19989;-62
2023/04/17 13:00:36;;;;;;;;;;;14.90;99.90;;;;;;5095877;28;20405;-62
2023/04/17 13:03:01;;;;;;;;;;;15.00;99.90;;;;;;5093571;28;20062;-62
2023/04/17 13:05:27;;;;;;;;;;;15.10;99.90;;;;;;5094238;28;20019;-62
2023/04/17 13:07:53;;;;;;;;;;;15.00;99.90;;;;;;5095395;28;20355;-61
2023/04/17 13:10:19;;;;;;;;;;;15.10;99.90;;;;;;5095346;28;20392;-62
2023/04/17 13:12:44;;;;;;;;;;;15.20;99.90;;;;;;5095434;28;20522;-62
2023/04/17 13:15:15;;;;;;;;;;;15.20;99.90;;;;;;5095769;28;20358;-62
2023/04/17 13:17:41;;;;;;;;;;;15.20;99.90;;;;;;5096828;28;20083;-61
2023/04/17 13:20:07;;;;;;;;;;;15.20;99.90;;;;;;5096841;28;19989;-61
2023/04/17 13:22:32;;;;;;;;;;;15.10;99.90;;;;;;5096450;28;20016;-62
2023/04/17 13:24:58;;;;;;;;;;;15.10;99.90;;;;;;5096717;28;19989;-62
2023/04/17 13:27:24;;;;;;;;;;;15.10;99.90;;;;;;5096452;28;19989;-62
2023/04/17 13:29:50;;;;;;;;;;;15.10;99.90;;;;;;5096806;28;20008;-62
2023/04/17 13:32:16;;;;;;;;;;;15.10;99.90;;;;;;5096486;28;20063;-62
2023/04/17 13:34:41;;;;;;;;;;;15.20;99.90;;;;;;5096704;28;19997;-62
2023/04/17 13:37:07;;;;;;;;;;;15.20;99.90;;;;;;5096338;28;19989;-62
2023/04/17 13:39:33;;;;;;;;;;;15.20;99.90;;;;;;5096412;28;20036;-61
2023/04/17 13:41:58;;;;;;;;;;;15.20;99.90;;;;;;5096094;28;19989;-61
2023/04/17 13:44:24;;;;;;;;;;;15.20;99.90;;;;;;5096297;28;20046;-62
2023/04/17 13:46:50;;;;;;;;;;;15.30;99.90;;;;;;5096160;28;20036;-62
2023/04/17 13:49:15;;;;;;;;;;;15.30;99.90;;;;;;5095362;28;19989;-62
2023/04/17 13:51:41;;;;;;;;;;;15.40;99.90;;;;;;5096113;28;20099;-61
2023/04/17 13:54:07;;;;;;;;;;;15.50;99.90;;;;;;5096309;28;19989;-62
2023/04/17 13:56:32;;;;;;;;;;;15.50;99.90;;;;;;5096028;28;20007;-61
2023/04/17 13:58:58;;;;;;;;;;;15.50;99.90;;;;;;5096049;28;20012;-62
2023/04/17 14:01:24;;;;;;;;;;;15.60;99.90;;;;;;5096126;28;20099;-62
2023/04/17 14:03:49;;;;;;;;;;;15.60;99.90;;;;;;5095684;28;20020;-62
2023/04/17 14:06:16;;;;;;;;;;;15.60;99.90;;;;;;5094650;28;19989;-62
2023/04/17 14:08:43;;;;;;;;;;;15.60;99.90;;;;;;5095709;28;19989;-62
2023/04/17 14:11:08;;;;;;;;;;;15.60;99.90;;;;;;5095902;28;19989;-62
2023/04/17 14:13:34;;;;;;;;;;;15.60;99.90;;;;;;5095515;28;20016;-62
2023/04/17 14:16:00;;;;;;;;;;;15.60;99.90;;;;;;5095629;28;20000;-62
2023/04/17 14:18:25;;;;;;;;;;;15.50;99.90;;;;;;5095499;28;20043;-62
2023/04/17 14:20:54;;;;;;;;;;;15.50;99.90;;;;;;5095639;28;19988;-62